Terminal Aerodrome Forecast
Issued by NWS

Home | Current Version | Previous Version | Graphics & Text | Print | Product List | Glossary On
Versions: 1 2 3 4 5 6 7 8 9 10 11 12 13 14 15 16 17 18 19 20 21 22 23 24
793
FTUS43 KBIS 212328
TAFDIK
TAF
KDIK 212328Z 2200/2224 VRB03KT P6SM SKC
     FM220800 06005KT P6SM SKC
     FM221500 10009KT P6SM SCT250
     FM221900 11015G21KT 6SM SHRA VCTS SCT040CB BKN090=

USA.gov is the U.S. government's official web portal to all federal, state and local government web resources and services.